Time;durP1;ratioP1;P1;durP2;ratioP2;P2;SDS_P1;SDS_P2;PMS_P1;PMS_P2;Temp;Humidity;BMP_temperature;BMP_pressure;BME280_temperature;BME280_humidity;BME280_pressure;Samples;Min_cycle;Max_cycle;Signal;HPM_P1;HPM_P2
2023/06/12 00:02:20;;;;;;;8.05;4.70;;;19.30;67.20;;;;;;7384897;19;20031;-91
2023/06/12 00:04:54;;;;;;;;;;;19.40;67.50;;;;;;7388897;19;20024;-91
2023/06/12 00:07:21;;;;;;;5.20;3.70;;;19.30;68.90;;;;;;7382499;19;19941;-90
2023/06/12 00:09:48;;;;;;;6.72;4.22;;;19.20;69.10;;;;;;7387292;19;20023;-92
2023/06/12 00:12:15;;;;;;;6.82;4.00;;;19.20;69.90;;;;;;7384507;19;20018;-90
2023/06/12 00:14:44;;;;;;;10.50;4.95;;;19.20;70.60;;;;;;7384578;19;20029;-92
2023/06/12 00:17:12;;;;;;;7.88;4.97;;;19.10;71.40;;;;;;7384909;19;20041;-91
2023/06/12 00:19:38;;;;;;;7.70;4.30;;;19.00;72.30;;;;;;7384037;19;20015;-91
2023/06/12 00:22:08;;;;;;;9.23;5.47;;;19.00;73.00;;;;;;7383985;19;20024;-91
2023/06/12 00:24:34;;;;;;;12.18;6.18;;;19.00;74.20;;;;;;7384549;19;20015;-90
2023/06/12 00:27:00;;;;;;;6.18;3.90;;;18.90;75.20;;;;;;7383487;19;20022;-90
2023/06/12 00:29:27;;;;;;;8.57;4.03;;;18.90;75.90;;;;;;7384101;19;20028;-91
2023/06/12 00:31:54;;;;;;;6.82;3.80;;;18.90;76.90;;;;;;7385238;19;20033;-92
2023/06/12 00:34:21;;;;;;;9.60;4.20;;;18.80;77.80;;;;;;7384207;19;20014;-91
2023/06/12 00:36:48;;;;;;;6.03;4.10;;;18.80;79.10;;;;;;7386878;19;20017;-91
2023/06/12 00:39:15;;;;;;;8.23;4.20;;;18.70;79.80;;;;;;7381737;19;20018;-91
2023/06/12 00:41:44;;;;;;;9.05;3.97;;;18.70;80.80;;;;;;7384334;19;20015;-89
2023/06/12 00:44:15;;;;;;;6.40;3.95;;;18.70;82.10;;;;;;7384124;19;20448;-91
2023/06/12 00:46:44;;;;;;;5.80;3.33;;;18.60;83.70;;;;;;7380798;19;20035;-91
2023/06/12 00:49:11;;;;;;;7.70;3.70;;;18.60;84.80;;;;;;7380692;19;20022;-89
2023/06/12 00:51:39;;;;;;;8.88;4.35;;;18.50;86.50;;;;;;7384887;19;20027;-92
2023/06/12 00:54:05;;;;;;;8.13;3.85;;;18.50;88.20;;;;;;7383908;19;20022;-90
2023/06/12 00:56:32;;;;;;;9.43;4.07;;;18.40;89.50;;;;;;7381719;19;20026;-92
2023/06/12 00:58:59;;;;;;;10.13;3.90;;;18.40;90.40;;;;;;7381160;19;20010;-92
2023/06/12 01:01:26;;;;;;;7.53;3.95;;;18.30;91.60;;;;;;7381272;19;20632;-92
2023/06/12 01:03:58;;;;;;;11.35;4.05;;;18.40;92.10;;;;;;7382093;19;20030;-92
2023/06/12 01:06:42;;;;;;;5.65;3.70;;;18.30;93.20;;;;;;7382498;19;20879;-92
2023/06/12 01:09:28;;;;;;;5.53;3.30;;;18.30;94.60;;;;;;7381621;19;20786;-91
2023/06/12 01:12:00;;;;;;;8.05;3.53;;;18.20;95.60;;;;;;7380776;19;20011;-91
2023/06/12 01:14:27;;;;;;;7.68;3.75;;;18.20;96.00;;;;;;7383465;19;20014;-92
2023/06/12 01:16:58;;;;;;;6.90;3.85;;;18.20;96.60;;;;;;7382838;19;20029;-91
2023/06/12 01:19:26;;;;;;;6.28;3.28;;;18.10;97.60;;;;;;7379998;19;20963;-90
2023/06/12 01:21:57;;;;;;;7.05;3.50;;;18.10;98.30;;;;;;7380802;19;20018;-92
2023/06/12 01:24:40;;;;;;;6.22;3.38;;;18.00;99.10;;;;;;7381960;19;20033;-92
2023/06/12 01:27:35;;;;;;;5.10;3.60;;;18.00;99.90;;;;;;7385832;19;20470;-92
2023/06/12 01:30:11;;;;;;;7.50;3.75;;;17.90;99.90;;;;;;7389000;19;20099;-92
2023/06/12 01:32:38;;;;;;;8.68;3.70;;;17.90;99.90;;;;;;7389970;19;20027;-92
2023/06/12 01:35:11;;;;;;;6.80;3.63;;;17.80;99.90;;;;;;7390985;19;20419;-90
2023/06/12 01:37:45;;;;;;;7.03;3.60;;;17.70;99.90;;;;;;7389384;19;20029;-92
2023/06/12 01:40:22;;;;;;;6.82;3.90;;;17.80;99.90;;;;;;7388524;19;20025;-92
2023/06/12 01:42:52;;;;;;;;;;;17.70;99.90;;;;;;7391507;19;20363;-92
2023/06/12 01:45:19;;;;;;;5.70;3.10;;;17.70;99.90;;;;;;7382844;19;19919;-91
2023/06/12 01:47:49;;;;;;;5.40;3.30;;;17.70;99.90;;;;;;7385645;19;20419;-92
2023/06/12 01:50:19;;;;;;;9.30;3.53;;;17.60;99.90;;;;;;7381801;19;20018;-90
2023/06/12 01:52:45;;;;;;;7.03;3.58;;;17.60;99.90;;;;;;7380625;19;20010;-89
2023/06/12 01:55:13;;;;;;;7.93;3.35;;;17.60;99.90;;;;;;7411665;19;20022;-91
2023/06/12 01:57:40;;;;;;;8.25;3.35;;;17.60;99.90;;;;;;7406166;19;20006;-91
2023/06/12 02:00:09;;;;;;;7.22;3.33;;;17.60;99.90;;;;;;7389396;19;20018;-90
2023/06/12 02:02:55;;;;;;;7.35;3.63;;;17.60;99.90;;;;;;7390994;19;20078;-92
2023/06/12 02:05:25;;;;;;;10.70;4.32;;;17.50;99.90;;;;;;7385366;19;20038;-91
2023/06/12 02:07:53;;;;;;;7.95;3.45;;;17.50;99.90;;;;;;7385057;19;20102;-91
2023/06/12 02:10:20;;;;;;;6.38;3.40;;;17.50;99.90;;;;;;7387751;19;20642;-91
2023/06/12 02:12:47;;;;;;;7.90;3.40;;;17.40;99.90;;;;;;7387088;19;20074;-91
2023/06/12 02:15:14;;;;;;;5.90;3.75;;;17.40;99.90;;;;;;7388469;19;20855;-91
2023/06/12 02:17:41;;;;;;;8.10;3.33;;;17.30;99.90;;;;;;7387815;19;20022;-90
2023/06/12 02:20:09;;;;;;;9.98;3.85;;;17.40;99.90;;;;;;7385155;19;20479;-92
2023/06/12 02:22:36;;;;;;;8.13;3.60;;;17.40;99.90;;;;;;7386107;19;20025;-92
2023/06/12 02:25:03;;;;;;;7.05;3.53;;;17.30;99.90;;;;;;7385838;19;20019;-92
2023/06/12 02:27:30;;;;;;;6.90;3.67;;;17.30;99.90;;;;;;7384265;19;20504;-93
2023/06/12 02:29:57;;;;;;;8.38;3.72;;;17.20;99.90;;;;;;7389304;19;20055;-92
2023/06/12 02:32:23;;;;;;;7.50;3.63;;;17.20;99.90;;;;;;7387068;19;20078;-92
2023/06/12 02:34:54;;;;;;;6.78;3.53;;;17.20;99.90;;;;;;7385034;19;20797;-92
2023/06/12 02:37:22;;;;;;;6.85;3.72;;;17.10;99.90;;;;;;7382626;19;20394;-92
2023/06/12 02:39:53;;;;;;;9.52;3.90;;;17.10;99.90;;;;;;7373701;19;20036;-90
2023/06/12 02:42:20;;;;;;;6.47;2.90;;;17.00;99.90;;;;;;7374836;19;20011;-92
2023/06/12 02:44:48;;;;;;;6.78;3.63;;;17.00;99.90;;;;;;7375577;19;20029;-91
2023/06/12 02:47:16;;;;;;;6.40;3.72;;;17.00;99.90;;;;;;7371715;19;20090;-92
2023/06/12 02:49:44;;;;;;;9.60;3.88;;;16.80;99.90;;;;;;7373752;19;20021;-91
2023/06/12 02:52:15;;;;;;;9.50;3.83;;;16.80;99.90;;;;;;7375141;19;20026;-91
2023/06/12 02:54:42;;;;;;;7.55;3.60;;;16.80;99.90;;;;;;7379309;19;20037;-91
2023/06/12 02:57:09;;;;;;;8.57;3.78;;;16.70;99.90;;;;;;7377230;19;20823;-91
2023/06/12 02:59:36;;;;;;;9.27;3.92;;;16.70;99.90;;;;;;7373566;19;20039;-92
2023/06/12 03:02:23;;;;;;;8.80;3.88;;;16.60;99.90;;;;;;7374721;19;20011;-92
2023/06/12 03:04:54;;;;;;;7.43;3.92;;;16.60;99.90;;;;;;7375397;19;20037;-91
2023/06/12 03:07:24;;;;;;;7.18;3.72;;;16.50;99.90;;;;;;7374389;19;20864;-91
2023/06/12 03:09:51;;;;;;;9.70;3.85;;;16.50;99.90;;;;;;7374722;19;20019;-93
2023/06/12 03:12:18;;;;;;;9.10;3.35;;;16.40;99.90;;;;;;7370696;19;20022;-91
2023/06/12 03:14:44;;;;;;;12.50;3.40;;;16.40;99.90;;;;;;7374364;19;20026;-92
2023/06/12 03:17:11;;;;;;;11.73;3.97;;;16.30;99.90;;;;;;7375002;19;20015;-92
2023/06/12 03:19:38;;;;;;;10.98;4.68;;;16.30;99.90;;;;;;7367976;19;20007;-92
2023/06/12 03:22:06;;;;;;;6.30;3.55;;;16.30;99.90;;;;;;7378460;19;20033;-91
2023/06/12 03:24:32;;;;;;;8.05;3.67;;;16.30;99.90;;;;;;7370071;19;20053;-91
2023/06/12 03:26:59;;;;;;;5.53;3.60;;;16.20;99.90;;;;;;7370202;19;20029;-91
2023/06/12 03:29:28;;;;;;;9.38;3.85;;;16.20;99.90;;;;;;7374804;19;20069;-92
2023/06/12 03:31:56;;;;;;;6.72;3.58;;;16.20;99.90;;;;;;7376804;19;20434;-90
2023/06/12 03:34:25;;;;;;;9.30;4.23;;;16.20;99.90;;;;;;7377984;19;20018;-90
2023/06/12 03:36:54;;;;;;;6.72;4.00;;;16.20;99.90;;;;;;7373111;19;20841;-89
2023/06/12 03:39:25;;;;;;;9.27;3.83;;;16.20;99.90;;;;;;7374299;19;20014;-91
2023/06/12 03:41:56;;;;;;;7.82;3.53;;;16.20;99.90;;;;;;7376045;19;20968;-91
2023/06/12 03:44:28;;;;;;;11.73;4.20;;;16.20;99.90;;;;;;7381727;19;20047;-91
2023/06/12 03:46:55;;;;;;;8.60;3.72;;;16.10;99.90;;;;;;7382267;19;20702;-90
2023/06/12 03:49:23;;;;;;;8.48;3.80;;;16.10;99.90;;;;;;7381668;19;20027;-91
2023/06/12 03:51:53;;;;;;;6.25;3.92;;;16.10;99.90;;;;;;7398519;19;20044;-92
2023/06/12 03:54:20;;;;;;;7.88;3.72;;;16.10;99.90;;;;;;7407235;19;20015;-92
2023/06/12 03:56:49;;;;;;;8.15;4.20;;;16.10;99.90;;;;;;7395671;19;20033;-92
2023/06/12 03:59:18;;;;;;;8.10;3.60;;;16.10;99.90;;;;;;7387308;19;20018;-93
2023/06/12 04:01:45;;;;;;;8.00;3.95;;;16.10;99.90;;;;;;7388035;19;20029;-92
2023/06/12 04:04:11;;;;;;;6.57;4.20;;;16.10;99.90;;;;;;7382616;19;20022;-92
2023/06/12 04:06:40;;;;;;;7.15;4.07;;;16.10;99.90;;;;;;7383140;19;20041;-90
2023/06/12 04:09:12;;;;;;;8.27;4.30;;;16.00;99.90;;;;;;7384853;19;20035;-93
2023/06/12 04:11:39;;;;;;;6.63;3.72;;;16.10;99.90;;;;;;7383058;19;20031;-91
2023/06/12 04:14:06;;;;;;;11.75;3.40;;;16.10;99.90;;;;;;7384387;19;20022;-92
2023/06/12 04:16:33;;;;;;;7.72;4.30;;;16.00;99.90;;;;;;7381800;19;20011;-91
2023/06/12 04:19:04;;;;;;;7.65;4.25;;;16.10;99.90;;;;;;7381741;19;20035;-90
2023/06/12 04:21:34;;;;;;;8.55;4.53;;;16.10;99.90;;;;;;7381495;19;20014;-90
2023/06/12 04:24:02;;;;;;;6.25;4.00;;;16.10;99.90;;;;;;7387052;19;20041;-92
2023/06/12 04:26:31;;;;;;;11.93;4.15;;;16.20;99.90;;;;;;7383632;19;20049;-95
2023/06/12 04:29:02;;;;;;;9.27;4.35;;;16.20;99.90;;;;;;7383869;19;20026;-91
2023/06/12 04:31:30;;;;;;;7.53;4.32;;;16.20;99.90;;;;;;7374670;19;20793;-94
2023/06/12 04:33:58;;;;;;;9.23;4.18;;;16.30;99.90;;;;;;7380896;19;20026;-90
2023/06/12 04:36:25;;;;;;;9.00;4.25;;;16.30;99.90;;;;;;7378130;19;20046;-89
2023/06/12 04:38:52;;;;;;;8.57;4.10;;;16.30;99.90;;;;;;7375379;19;20082;-87
2023/06/12 04:41:20;;;;;;;7.07;3.80;;;16.30;99.90;;;;;;7371442;19;20015;-90
2023/06/12 04:43:49;;;;;;;9.85;4.65;;;16.40;99.90;;;;;;7371636;19;20023;-90
2023/06/12 04:46:18;;;;;;;9.18;4.95;;;16.50;99.90;;;;;;7371633;19;20582;-88
2023/06/12 04:48:47;;;;;;;12.63;4.68;;;16.50;99.90;;;;;;7371637;19;20591;-88
2023/06/12 04:51:14;;;;;;;8.52;4.55;;;16.60;99.90;;;;;;7371793;19;20015;-90
2023/06/12 04:53:47;;;;;;;7.53;4.15;;;16.70;99.90;;;;;;7375784;19;20019;-90
2023/06/12 04:56:20;;;;;;;8.95;4.63;;;16.60;99.90;;;;;;7381392;19;20015;-92
2023/06/12 04:58:51;;;;;;;7.55;4.35;;;16.80;99.90;;;;;;7386017;19;20058;-92
2023/06/12 05:01:19;;;;;;;9.35;4.03;;;16.90;99.90;;;;;;7390599;19;20479;-92
2023/06/12 05:03:49;;;;;;;9.85;4.80;;;17.00;99.90;;;;;;7389240;19;20364;-92
2023/06/12 05:06:17;;;;;;;9.57;4.75;;;17.10;99.90;;;;;;7389612;19;20041;-91
2023/06/12 05:08:48;;;;;;;8.98;4.45;;;17.40;99.90;;;;;;7391328;19;20022;-91
2023/06/12 05:11:16;;;;;;;6.80;4.30;;;17.80;99.90;;;;;;7392818;19;20014;-92
2023/06/12 05:13:42;;;;;;;8.18;4.82;;;18.10;99.90;;;;;;7391376;19;20021;-92
2023/06/12 05:16:09;;;;;;;10.52;4.53;;;18.50;99.90;;;;;;7392493;19;20030;-92
2023/06/12 05:18:36;;;;;;;11.27;4.63;;;18.80;99.90;;;;;;7394066;19;20063;-92
2023/06/12 05:21:04;;;;;;;9.15;4.28;;;19.00;99.90;;;;;;7394961;19;20018;-91
2023/06/12 05:23:31;;;;;;;6.25;3.90;;;19.20;99.90;;;;;;7388853;19;20051;-91
2023/06/12 05:25:59;;;;;;;6.78;4.43;;;19.40;99.90;;;;;;7391756;19;20017;-92
2023/06/12 05:28:29;;;;;;;7.15;4.47;;;19.70;99.90;;;;;;7387837;19;20437;-91
2023/06/12 05:30:56;;;;;;;9.98;4.47;;;19.80;99.90;;;;;;7392758;19;20101;-92
2023/06/12 05:33:22;;;;;;;10.35;5.07;;;20.00;99.90;;;;;;7390653;19;20387;-92
2023/06/12 05:35:53;;;;;;;9.88;4.22;;;19.90;99.90;;;;;;7391549;19;20050;-89
2023/06/12 05:38:23;;;;;;;10.23;4.68;;;20.20;99.90;;;;;;7381811;19;20018;-90
2023/06/12 05:40:53;;;;;;;10.23;4.07;;;20.30;99.90;;;;;;7375782;19;20022;-94
2023/06/12 05:43:19;;;;;;;8.73;3.88;;;20.40;99.90;;;;;;7379973;19;20477;-86
2023/06/12 05:45:49;;;;;;;12.13;5.25;;;20.50;99.90;;;;;;7375547;19;20011;-90
2023/06/12 05:48:15;;;;;;;10.00;4.68;;;20.50;99.90;;;;;;7368244;19;20022;-86
2023/06/12 05:50:42;;;;;;;10.60;4.53;;;20.60;99.90;;;;;;7376456;19;20018;-87
2023/06/12 05:53:08;;;;;;;8.20;4.28;;;20.80;99.90;;;;;;7375959;19;20032;-86
2023/06/12 05:55:38;;;;;;;11.80;6.90;;;21.00;99.90;;;;;;7376116;19;20018;-84
2023/06/12 05:58:04;;;;;;;13.13;5.25;;;21.00;99.90;;;;;;7372912;19;20018;-86
2023/06/12 06:00:31;;;;;;;7.72;4.07;;;21.10;99.90;;;;;;7373088;19;20015;-87
2023/06/12 06:03:04;;;;;;;7.82;5.05;;;21.10;99.90;;;;;;7373377;19;20041;-85
2023/06/12 06:05:32;;;;;;;7.05;4.57;;;21.30;99.90;;;;;;7377368;19;20023;-88
2023/06/12 06:08:06;;;;;;;9.40;4.22;;;21.50;99.90;;;;;;7371587;19;20078;-87
2023/06/12 06:10:33;;;;;;;12.10;5.20;;;21.70;99.90;;;;;;7381069;19;20910;-91
2023/06/12 06:13:00;;;;;;;8.30;4.13;;;21.60;99.90;;;;;;7383382;19;20087;-90
2023/06/12 06:15:26;;;;;;;8.32;5.20;;;21.80;99.90;;;;;;7380283;19;20041;-89
2023/06/12 06:17:54;;;;;;;5.22;3.85;;;22.00;99.90;;;;;;7379305;19;20053;-90
2023/06/12 06:20:21;;;;;;;6.63;4.45;;;22.20;99.90;;;;;;7380971;19;20034;-91
2023/06/12 06:22:47;;;;;;;8.05;4.57;;;22.20;99.90;;;;;;7379914;19;20053;-92
2023/06/12 06:25:15;;;;;;;7.00;4.72;;;22.40;99.90;;;;;;7379506;19;20019;-88
2023/06/12 06:27:42;;;;;;;7.20;4.28;;;22.50;99.90;;;;;;7372399;19;20025;-88
2023/06/12 06:30:09;;;;;;;7.70;4.15;;;22.60;99.90;;;;;;7381296;19;20043;-87
2023/06/12 06:32:36;;;;;;;8.98;4.93;;;22.80;99.90;;;;;;7375100;19;20019;-87
2023/06/12 06:35:03;;;;;;;10.38;4.32;;;22.90;99.90;;;;;;7377933;19;20015;-93
2023/06/12 06:37:30;;;;;;;7.28;4.28;;;23.30;99.90;;;;;;7377228;19;20740;-89
2023/06/12 06:39:56;;;;;;;8.85;4.28;;;23.40;99.90;;;;;;7377477;19;20018;-90
2023/06/12 06:42:22;;;;;;;10.85;4.70;;;23.60;99.90;;;;;;7373128;19;22299;-89
2023/06/12 06:45:21;;;;;;;7.80;4.38;;;23.90;99.90;;;;;;7379341;19;20363;-90
2023/06/12 06:47:49;;;;;;;7.18;4.35;;;24.30;99.90;;;;;;7376897;19;20030;-88
2023/06/12 06:50:17;;;;;;;6.28;4.57;;;24.30;99.00;;;;;;7373464;19;20022;-90
2023/06/12 06:52:44;;;;;;;8.98;4.70;;;24.30;98.70;;;;;;7374914;19;20018;-90
2023/06/12 06:55:13;;;;;;;7.68;5.75;;;24.30;98.70;;;;;;7380432;19;20007;-92
2023/06/12 06:57:39;;;;;;;5.93;4.00;;;24.30;97.60;;;;;;7384496;19;20010;-92
2023/06/12 07:00:07;;;;;;;9.20;4.45;;;24.30;97.50;;;;;;7382783;19;20342;-90
2023/06/12 07:02:34;;;;;;;8.15;4.70;;;24.70;97.30;;;;;;7376665;19;20373;-91
2023/06/12 07:05:01;;;;;;;10.25;5.18;;;24.80;96.70;;;;;;7381824;19;20010;-91
2023/06/12 07:07:28;;;;;;;8.10;4.30;;;24.90;96.60;;;;;;7377614;19;20361;-87
2023/06/12 07:09:55;;;;;;;9.02;4.88;;;25.10;96.00;;;;;;7372509;19;20402;-86
2023/06/12 07:12:22;;;;;;;10.00;4.90;;;25.30;95.20;;;;;;7371988;19;20047;-93
2023/06/12 07:14:48;;;;;;;8.00;4.28;;;25.10;93.00;;;;;;7373622;19;20019;-92
2023/06/12 07:17:18;;;;;;;12.13;4.65;;;25.50;91.80;;;;;;7371416;19;20038;-87
2023/06/12 07:19:44;;;;;;;16.20;14.40;;;25.70;91.20;;;;;;7371744;19;20026;-88
2023/06/12 07:22:11;;;;;;;8.68;4.30;;;25.90;90.60;;;;;;7369874;19;20347;-89
2023/06/12 07:24:37;;;;;;;14.00;11.75;;;26.00;88.80;;;;;;7374416;19;20015;-90
2023/06/12 07:27:04;;;;;;;8.77;4.68;;;26.30;87.30;;;;;;7370560;19;20026;-88
2023/06/12 07:29:32;;;;;;;9.50;4.20;;;26.20;81.30;;;;;;7369526;19;20018;-88
2023/06/12 07:31:59;;;;;;;8.63;6.68;;;26.30;82.30;;;;;;7368095;19;20022;-88
2023/06/12 07:34:25;;;;;;;10.60;7.20;;;26.60;82.70;;;;;;7367531;19;20105;-90
2023/06/12 07:36:52;;;;;;;8.68;5.43;;;26.80;81.00;;;;;;7373381;19;20026;-89
2023/06/12 07:39:18;;;;;;;8.70;4.32;;;27.10;80.30;;;;;;7369354;19;20128;-88
2023/06/12 07:41:45;;;;;;;10.68;9.57;;;27.20;78.50;;;;;;7370678;19;20062;-88
2023/06/12 07:44:12;;;;;;;6.82;4.43;;;27.40;75.80;;;;;;7370741;19;20018;-89
2023/06/12 07:46:42;;;;;;;5.82;3.60;;;27.40;74.20;;;;;;7374343;19;20034;-86
2023/06/12 07:49:09;;;;;;;6.80;4.00;;;27.60;71.10;;;;;;7373352;19;20316;-87
2023/06/12 07:51:36;;;;;;;8.63;4.20;;;27.80;70.00;;;;;;7371239;19;20861;-82
2023/06/12 07:54:03;;;;;;;6.82;3.85;;;28.00;69.80;;;;;;7370248;19;20108;-82
2023/06/12 07:56:32;;;;;;;8.63;4.18;;;27.80;68.80;;;;;;7368095;19;20029;-83
2023/06/12 07:59:06;;;;;;;5.78;3.72;;;28.00;67.10;;;;;;7364628;19;20022;-81
2023/06/12 08:01:35;;;;;;;7.68;4.47;;;28.20;64.80;;;;;;7368557;19;20018;-82
2023/06/12 08:04:03;;;;;;;8.10;4.60;;;28.00;64.50;;;;;;7370301;19;20026;-85
2023/06/12 08:06:33;;;;;;;8.05;3.88;;;28.40;64.70;;;;;;7369660;19;20094;-85
2023/06/12 08:09:00;;;;;;;11.45;5.82;;;28.40;62.50;;;;;;7367646;19;20022;-84
2023/06/12 08:11:27;;;;;;;8.52;3.67;;;28.40;61.10;;;;;;7368978;19;20026;-84
2023/06/12 08:13:54;;;;;;;10.43;4.57;;;28.30;61.50;;;;;;7367219;19;20094;-83
2023/06/12 08:16:23;;;;;;;12.43;8.35;;;28.60;63.40;;;;;;7366832;19;20029;-83
2023/06/12 08:18:53;;;;;;;7.90;5.22;;;28.70;64.30;;;;;;7371822;19;20016;-85
2023/06/12 08:21:27;;;;;;;10.18;5.53;;;28.80;60.90;;;;;;7369349;19;20036;-85
2023/06/12 08:23:56;;;;;;;9.13;4.60;;;28.70;58.50;;;;;;7366100;19;20023;-86
2023/06/12 08:26:24;;;;;;;8.15;3.95;;;29.00;58.50;;;;;;7367347;19;20018;-87
2023/06/12 08:28:52;;;;;;;6.85;3.88;;;29.00;57.10;;;;;;7369890;19;20478;-84
2023/06/12 08:31:23;;;;;;;13.43;11.30;;;29.30;56.70;;;;;;7370978;19;20014;-86
2023/06/12 08:33:53;;;;;;;7.68;5.47;;;29.10;57.20;;;;;;7369602;19;20014;-85
2023/06/12 08:36:23;;;;;;;7.65;4.50;;;29.50;57.40;;;;;;7370088;19;20090;-84
2023/06/12 08:38:49;;;;;;;7.25;4.47;;;29.20;57.10;;;;;;7368472;19;20478;-84
2023/06/12 08:41:26;;;;;;;8.15;4.25;;;30.00;56.90;;;;;;7367642;19;20025;-87
2023/06/12 08:43:56;;;;;;;8.05;4.60;;;29.90;55.40;;;;;;7362607;19;20883;-85
2023/06/12 08:46:33;;;;;;;8.35;4.03;;;29.70;55.30;;;;;;7366135;19;20041;-84
2023/06/12 08:49:00;;;;;;;16.42;11.68;;;29.70;56.30;;;;;;7367758;19;20025;-82
2023/06/12 08:51:28;;;;;;;7.65;4.50;;;30.10;57.30;;;;;;7366814;19;20102;-83
2023/06/12 08:53:56;;;;;;;11.40;5.47;;;29.80;55.40;;;;;;7358433;19;20281;-83
2023/06/12 08:56:23;;;;;;;9.95;7.13;;;30.10;56.10;;;;;;7352646;19;20022;-86
2023/06/12 08:58:50;;;;;;;10.93;7.45;;;30.20;56.50;;;;;;7355100;19;20018;-84
2023/06/12 09:01:18;;;;;;;9.30;6.72;;;30.50;56.10;;;;;;7351103;19;20068;-83
2023/06/12 09:03:52;;;;;;;8.98;4.47;;;30.70;56.00;;;;;;7353688;19;20018;-85
2023/06/12 09:06:21;;;;;;;9.65;4.68;;;30.80;56.50;;;;;;7352324;19;20514;-85
2023/06/12 09:08:48;;;;;;;6.78;4.53;;;31.00;53.80;;;;;;7350215;19;20014;-85
2023/06/12 09:11:14;;;;;;;9.30;4.30;;;30.90;52.60;;;;;;7362077;19;20018;-86
2023/06/12 09:13:42;;;;;;;8.95;4.60;;;30.80;53.20;;;;;;7369716;19;20021;-84
2023/06/12 09:16:13;;;;;;;7.45;4.50;;;31.10;53.00;;;;;;7371015;19;20022;-83
2023/06/12 09:18:53;;;;;;;21.30;18.92;;;31.20;51.40;;;;;;7368758;19;20078;-84
2023/06/12 09:21:23;;;;;;;8.48;5.68;;;31.60;51.70;;;;;;7368396;19;20018;-85
2023/06/12 09:23:51;;;;;;;;;;;31.70;50.20;;;;;;7364399;19;21379;-84
2023/06/12 09:26:21;;;;;;;8.27;6.00;;;32.00;50.10;;;;;;7369108;19;19952;-85
2023/06/12 09:28:54;;;;;;;9.10;4.85;;;32.10;49.80;;;;;;7365092;19;20021;-83
2023/06/12 09:31:21;;;;;;;8.30;5.07;;;32.30;47.90;;;;;;7366914;19;20054;-83
2023/06/12 09:33:52;;;;;;;10.50;5.20;;;32.70;47.80;;;;;;7368228;19;20485;-84
2023/06/12 09:36:20;;;;;;;7.95;5.13;;;32.40;46.90;;;;;;7365953;19;20018;-84
2023/06/12 09:38:50;;;;;;;8.02;7.03;;;32.60;47.20;;;;;;7368751;19;20018;-81
2023/06/12 09:41:22;;;;;;;8.13;5.22;;;32.70;47.40;;;;;;7365620;19;20023;-81
2023/06/12 09:43:52;;;;;;;10.45;5.22;;;32.40;45.80;;;;;;7366409;19;20019;-83
2023/06/12 09:46:25;;;;;;;8.05;5.57;;;32.20;45.00;;;;;;7370818;19;20952;-83
2023/06/12 09:48:56;;;;;;;7.07;5.07;;;32.30;45.00;;;;;;7375872;19;20019;-82
2023/06/12 09:51:23;;;;;;;9.85;6.35;;;32.80;45.50;;;;;;7375413;19;20015;-83
2023/06/12 09:53:53;;;;;;;8.00;5.20;;;33.00;45.30;;;;;;7374563;19;20014;-83
2023/06/12 09:56:21;;;;;;;9.35;6.65;;;33.00;44.10;;;;;;7376775;19;20067;-82
2023/06/12 09:58:51;;;;;;;8.25;5.78;;;33.30;44.70;;;;;;7373408;19;20750;-84
2023/06/12 10:01:19;;;;;;;7.82;5.43;;;33.50;45.30;;;;;;7366231;19;20045;-83
2023/06/12 10:03:56;;;;;;;9.25;8.30;;;33.40;43.80;;;;;;7374722;19;20029;-83
2023/06/12 10:06:25;;;;;;;21.23;18.90;;;33.90;43.80;;;;;;7374823;19;20022;-84
2023/06/12 10:08:54;;;;;;;22.33;20.00;;;34.10;43.30;;;;;;7372588;19;20018;-83
2023/06/12 10:11:22;;;;;;;9.03;5.60;;;34.10;43.10;;;;;;7373719;19;20035;-82
2023/06/12 10:13:50;;;;;;;7.95;5.55;;;33.90;42.50;;;;;;7375417;19;20023;-83
2023/06/12 10:16:18;;;;;;;10.80;8.80;;;33.50;41.40;;;;;;7369553;19;20041;-82
2023/06/12 10:18:45;;;;;;;11.02;9.98;;;33.80;41.40;;;;;;7373212;19;20022;-83
2023/06/12 10:21:11;;;;;;;8.70;5.60;;;33.70;41.90;;;;;;7375722;19;20014;-83
2023/06/12 10:23:38;;;;;;;9.00;5.30;;;33.90;41.90;;;;;;7371637;19;20041;-83
2023/06/12 10:26:05;;;;;;;8.82;5.90;;;33.70;41.50;;;;;;7373758;19;20109;-83
2023/06/12 10:28:32;;;;;;;7.60;6.45;;;33.90;40.90;;;;;;7366010;19;20018;-82
2023/06/12 10:31:17;;;;;;;7.13;5.03;;;34.30;41.00;;;;;;7374684;19;20022;-83
2023/06/12 10:34:15;;;;;;;9.95;5.22;;;34.20;37.90;;;;;;7374569;19;20018;-83
2023/06/12 10:36:44;;;;;;;8.05;6.18;;;34.40;37.20;;;;;;7374033;19;20031;-82
2023/06/12 10:39:19;;;;;;;9.05;8.10;;;34.20;38.20;;;;;;7374273;19;20338;-82
2023/06/12 10:41:58;;;;;;;16.00;12.77;;;34.80;38.80;;;;;;7372529;19;20023;-83
2023/06/12 10:44:39;;;;;;;6.10;5.20;;;35.10;38.00;;;;;;7373262;19;20021;-83
2023/06/12 10:47:20;;;;;;;11.23;8.98;;;34.30;36.90;;;;;;7374625;19;20074;-83
2023/06/12 10:50:00;;;;;;;10.93;8.73;;;34.10;37.00;;;;;;7372901;19;20403;-83
2023/06/12 10:52:27;;;;;;;;;;;33.80;37.70;;;;;;7372475;19;20078;-82
2023/06/12 10:55:29;;;;;;;10.55;5.20;;;34.20;37.10;;;;;;7374239;19;19926;-83
2023/06/12 10:58:00;;;;;;;6.65;5.18;;;33.70;34.50;;;;;;7372408;19;20034;-83
2023/06/12 11:00:37;;;;;;;10.32;5.07;;;33.50;36.10;;;;;;7370197;19;20082;-83
2023/06/12 11:03:11;;;;;;;23.05;20.90;;;33.70;35.20;;;;;;7373319;19;20843;-83
2023/06/12 11:05:48;;;;;;;6.55;5.75;;;33.80;36.90;;;;;;7372774;19;20023;-82
2023/06/12 11:08:15;;;;;;;11.27;7.30;;;33.70;36.50;;;;;;7370459;19;20025;-82
2023/06/12 11:10:44;;;;;;;9.55;5.50;;;34.20;36.90;;;;;;7373013;19;20028;-82
2023/06/12 11:13:14;;;;;;;8.05;5.53;;;34.50;36.10;;;;;;7372418;19;20549;-84
2023/06/12 11:15:43;;;;;;;8.13;6.20;;;34.80;37.00;;;;;;7379558;19;20038;-86
2023/06/12 11:18:11;;;;;;;12.90;7.63;;;34.90;36.10;;;;;;7379739;19;20026;-87
2023/06/12 11:20:39;;;;;;;14.77;13.30;;;35.00;35.90;;;;;;7383543;19;20047;-82
2023/06/12 11:23:06;;;;;;;28.55;26.13;;;35.00;34.00;;;;;;7377877;19;20037;-84
2023/06/12 11:25:34;;;;;;;9.43;6.38;;;34.90;33.90;;;;;;7372647;19;20041;-84
2023/06/12 11:28:12;;;;;;;18.70;16.90;;;34.60;33.00;;;;;;7371778;19;20014;-84
2023/06/12 11:30:48;;;;;;;11.25;10.25;;;34.70;33.20;;;;;;7370213;19;20026;-83
2023/06/12 11:33:16;;;;;;;10.25;8.90;;;34.20;32.90;;;;;;7370462;19;20567;-82
2023/06/12 11:35:48;;;;;;;7.10;6.40;;;33.90;33.80;;;;;;7374172;19;20018;-83
2023/06/12 11:38:16;;;;;;;7.75;6.97;;;33.80;33.80;;;;;;7371477;19;20399;-83
2023/06/12 11:41:04;;;;;;;7.97;6.10;;;33.20;34.30;;;;;;7374306;19;20056;-81
2023/06/12 11:43:31;;;;;;;12.57;11.40;;;32.80;33.90;;;;;;7374917;19;20054;-82
2023/06/12 11:46:02;;;;;;;14.93;13.52;;;33.30;35.40;;;;;;7369711;19;20520;-82
2023/06/12 11:48:31;;;;;;;14.10;12.75;;;33.80;35.30;;;;;;7370241;19;20039;-83
2023/06/12 11:50:57;;;;;;;10.15;6.80;;;34.10;34.00;;;;;;7371851;19;20018;-83
2023/06/12 11:53:23;;;;;;;15.57;14.23;;;34.30;34.00;;;;;;7369696;19;20037;-81
2023/06/12 11:56:02;;;;;;;9.65;8.57;;;34.60;34.20;;;;;;7371863;19;20025;-82
2023/06/12 11:58:34;;;;;;;12.82;11.52;;;34.50;32.80;;;;;;7372652;19;20035;-85
2023/06/12 12:01:25;;;;;;;11.38;10.23;;;34.50;33.30;;;;;;7371746;19;20026;-85
2023/06/12 12:03:52;;;;;;;8.88;8.05;;;34.70;34.60;;;;;;7367571;19;20022;-83
2023/06/12 12:06:18;;;;;;;17.90;16.25;;;33.30;33.80;;;;;;7372848;19;20014;-82
2023/06/12 12:08:53;;;;;;;10.15;8.90;;;33.30;34.30;;;;;;7363511;19;20506;-80
2023/06/12 12:11:22;;;;;;;21.52;19.55;;;33.50;34.70;;;;;;7370416;19;20014;-83
2023/06/12 12:13:53;;;;;;;8.68;7.60;;;33.60;34.80;;;;;;7373653;19;20049;-84
2023/06/12 12:16:26;;;;;;;13.10;9.48;;;33.70;34.10;;;;;;7367227;19;20108;-87
2023/06/12 12:18:53;;;;;;;8.52;7.35;;;34.20;33.60;;;;;;7366399;19;20014;-87
2023/06/12 12:21:21;;;;;;;13.52;12.13;;;33.30;33.20;;;;;;7372914;19;20470;-83
2023/06/12 12:23:48;;;;;;;10.30;9.18;;;32.70;34.20;;;;;;7366682;19;20014;-86
2023/06/12 12:26:15;;;;;;;11.02;7.07;;;33.10;34.50;;;;;;7369133;19;20018;-85
2023/06/12 12:28:45;;;;;;;7.53;6.28;;;33.50;33.70;;;;;;7363743;19;20466;-88
2023/06/12 12:31:12;;;;;;;8.60;7.70;;;33.70;33.30;;;;;;7370449;19;20086;-84
2023/06/12 12:33:38;;;;;;;38.92;35.58;;;34.30;33.70;;;;;;7364661;19;20022;-86
2023/06/12 12:36:05;;;;;;;8.82;7.82;;;34.20;33.20;;;;;;7370351;19;20101;-86
2023/06/12 12:38:32;;;;;;;8.52;7.72;;;34.50;32.20;;;;;;7365624;19;20025;-86
2023/06/12 12:40:59;;;;;;;11.25;8.75;;;34.60;32.20;;;;;;7369054;19;20015;-88
2023/06/12 12:43:25;;;;;;;9.32;8.43;;;34.50;32.30;;;;;;7368652;19;20055;-84
2023/06/12 12:45:52;;;;;;;10.40;9.40;;;34.40;31.90;;;;;;7368011;19;20050;-87
2023/06/12 12:48:18;;;;;;;10.20;9.15;;;34.20;31.90;;;;;;7370018;19;20459;-84
2023/06/12 12:50:45;;;;;;;6.70;6.00;;;34.80;32.60;;;;;;7367967;19;20091;-86
2023/06/12 12:53:12;;;;;;;8.27;6.50;;;35.00;31.90;;;;;;7367170;19;20759;-86
2023/06/12 12:55:38;;;;;;;10.90;7.80;;;35.70;32.00;;;;;;7368907;19;20019;-85
2023/06/12 12:58:04;;;;;;;6.70;6.00;;;35.90;32.30;;;;;;7366124;19;20747;-85